createdAt,value
2019-03-27T00:01:46.968Z,2.57
2019-03-27T00:04:16.462Z,2.40
2019-03-27T00:06:45.929Z,2.37
2019-03-27T00:09:15.423Z,2.67
2019-03-27T00:11:45.112Z,2.97
2019-03-27T00:14:14.754Z,2.47
2019-03-27T00:16:44.155Z,2.90
2019-03-27T00:19:13.672Z,3.03
2019-03-27T00:21:43.085Z,3.22
2019-03-27T00:24:12.581Z,3.67
2019-03-27T00:26:42.057Z,3.40
2019-03-27T00:29:11.494Z,3.47
2019-03-27T00:31:40.901Z,3.37
2019-03-27T00:34:10.345Z,3.53
2019-03-27T00:36:39.839Z,3.73
2019-03-27T00:39:09.322Z,4.17
2019-03-27T00:41:39.340Z,4.33
2019-03-27T00:44:09.036Z,5.30
2019-03-27T00:47:51.958Z,6.40
2019-03-27T00:50:22.528Z,10.83
2019-03-27T00:52:51.948Z,10.93
2019-03-27T00:55:22.297Z,7.50
2019-03-27T00:57:51.714Z,6.60
2019-03-27T01:00:45.877Z,6.87
2019-03-27T01:03:15.455Z,7.33
2019-03-27T01:05:45.934Z,7.83
2019-03-27T01:08:15.426Z,8.37
2019-03-27T01:10:44.942Z,8.73
2019-03-27T01:13:14.657Z,9.03
2019-03-27T01:15:44.307Z,8.43
2019-03-27T01:18:13.947Z,6.07
2019-03-27T01:20:43.533Z,5.17
2019-03-27T01:23:13.069Z,5.03
2019-03-27T01:25:42.606Z,5.50
2019-03-27T01:28:12.185Z,5.20
2019-03-27T01:30:41.893Z,5.43
2019-03-27T01:33:11.374Z,9.80
2019-03-27T01:35:40.903Z,5.67
2019-03-27T01:38:10.312Z,6.33
2019-03-27T01:40:39.816Z,5.43
2019-03-27T01:43:09.340Z,6.07
2019-03-27T01:45:52.137Z,9.80
2019-03-27T01:48:11.144Z,8.83
2019-03-27T01:50:40.615Z,7.70
2019-03-27T01:53:10.030Z,5.03
2019-03-27T01:55:39.532Z,5.73
2019-03-27T01:58:09.040Z,5.60
2019-03-27T02:00:38.538Z,6.03
2019-03-27T02:03:07.988Z,5.23
2019-03-27T02:05:39.001Z,4.40
2019-03-27T02:08:08.501Z,4.17
2019-03-27T02:10:38.170Z,4.83
2019-03-27T02:13:07.735Z,3.53
2019-03-27T02:15:37.292Z,4.10
2019-03-27T02:18:06.777Z,3.83
2019-03-27T02:20:36.230Z,3.83
2019-03-27T02:23:07.422Z,3.60
2019-03-27T02:25:36.957Z,5.03
2019-03-27T02:28:06.449Z,5.07
2019-03-27T02:30:39.590Z,4.80
2019-03-27T02:33:09.146Z,5.20
2019-03-27T02:35:39.646Z,5.20
2019-03-27T02:38:09.112Z,4.87
2019-03-27T02:40:38.543Z,4.73
2019-03-27T02:43:09.011Z,5.40
2019-03-27T02:45:38.441Z,5.67
2019-03-27T02:48:07.848Z,5.17
2019-03-27T02:50:37.341Z,6.00
2019-03-27T02:53:06.885Z,6.47
2019-03-27T02:55:36.326Z,7.17
2019-03-27T02:58:05.752Z,7.30
2019-03-27T03:00:36.377Z,7.40
2019-03-27T03:03:05.860Z,7.97
2019-03-27T03:05:35.407Z,7.83
2019-03-27T03:08:04.964Z,8.13
2019-03-27T03:10:34.648Z,8.87
2019-03-27T03:13:04.394Z,7.97
2019-03-27T03:15:33.829Z,7.80
2019-03-27T03:18:03.382Z,9.10
2019-03-27T03:20:33.896Z,8.17
2019-03-27T03:23:03.364Z,10.77
2019-03-27T03:25:32.860Z,10.73
2019-03-27T03:28:02.345Z,11.20
2019-03-27T03:30:31.876Z,10.33
2019-03-27T03:33:01.295Z,12.87
2019-03-27T03:35:30.768Z,12.90
2019-03-27T03:38:01.170Z,13.07
2019-03-27T03:40:30.685Z,15.17
2019-03-27T03:43:00.257Z,11.17
2019-03-27T03:45:30.069Z,10.43
2019-03-27T03:47:59.745Z,12.77
2019-03-27T03:50:42.847Z,13.10
2019-03-27T03:53:14.041Z,12.97
2019-03-27T03:55:44.828Z,14.70
2019-03-27T03:58:16.613Z,13.80
2019-03-27T04:00:46.880Z,13.17
2019-03-27T04:03:17.553Z,14.27
2019-03-27T04:05:47.087Z,14.07
2019-03-27T04:08:16.581Z,14.20
2019-03-27T04:10:46.052Z,13.37
2019-03-27T04:13:15.661Z,11.93
2019-03-27T04:15:45.231Z,12.37
2019-03-27T04:18:14.842Z,11.47
2019-03-27T04:20:44.359Z,26.83
2019-03-27T04:23:13.960Z,20.10
2019-03-27T04:26:08.379Z,12.87
2019-03-27T04:28:14.566Z,10.90
2019-03-27T04:30:44.122Z,11.10
2019-03-27T04:33:13.670Z,10.67
2019-03-27T04:35:44.039Z,12.07
2019-03-27T04:38:13.852Z,11.88
2019-03-27T04:40:43.337Z,14.87
2019-03-27T04:43:12.832Z,19.65
2019-03-27T04:45:42.303Z,27.42
2019-03-27T04:48:11.881Z,39.40
2019-03-27T04:50:41.296Z,19.07
2019-03-27T04:53:10.824Z,18.42
2019-03-27T04:55:40.316Z,20.07
2019-03-27T04:58:10.907Z,20.43
2019-03-27T05:00:40.480Z,20.90
2019-03-27T05:03:10.065Z,21.10
2019-03-27T05:05:39.632Z,21.03
2019-03-27T05:08:09.166Z,19.43
2019-03-27T05:10:38.669Z,19.40
2019-03-27T05:13:08.284Z,19.97
2019-03-27T05:15:37.803Z,19.23
2019-03-27T05:18:07.418Z,23.40
2019-03-27T05:20:36.915Z,24.90
2019-03-27T05:23:06.455Z,23.97
2019-03-27T05:25:35.992Z,24.30
2019-03-27T05:28:05.514Z,25.00
2019-03-27T05:30:36.096Z,24.03
2019-03-27T05:33:05.716Z,21.70
2019-03-27T05:35:35.341Z,25.23
2019-03-27T05:38:04.984Z,25.23
2019-03-27T05:40:36.377Z,23.80
2019-03-27T05:43:05.948Z,25.07
2019-03-27T05:45:35.443Z,26.63
2019-03-27T05:48:05.222Z,28.37
2019-03-27T05:50:34.664Z,30.93
2019-03-27T05:53:04.188Z,30.57
2019-03-27T05:55:33.679Z,28.87
2019-03-27T05:58:03.138Z,30.47
2019-03-27T06:00:33.518Z,28.57
2019-03-27T06:03:04.124Z,29.20
2019-03-27T06:05:33.557Z,26.53
2019-03-27T06:08:03.101Z,25.90
2019-03-27T06:10:32.592Z,26.20
2019-03-27T06:13:02.094Z,24.10
2019-03-27T06:15:31.537Z,23.33
2019-03-27T06:18:12.453Z,24.50
2019-03-27T06:20:32.472Z,24.47
2019-03-27T06:23:03.421Z,24.03
2019-03-27T06:25:33.008Z,25.90
2019-03-27T06:28:02.573Z,26.47
2019-03-27T06:30:31.995Z,26.07
2019-03-27T06:33:01.453Z,26.83
2019-03-27T06:35:31.078Z,31.20
2019-03-27T06:38:01.099Z,30.03
2019-03-27T06:40:30.600Z,25.40
2019-03-27T06:43:00.212Z,22.80
2019-03-27T06:45:30.771Z,20.17
2019-03-27T06:48:00.399Z,19.17
2019-03-27T06:50:29.941Z,17.87
2019-03-27T06:52:59.473Z,18.00
2019-03-27T06:55:29.137Z,19.03
2019-03-27T06:57:58.769Z,16.33
2019-03-27T07:00:36.645Z,16.90
2019-03-27T07:03:07.609Z,17.63
2019-03-27T07:05:37.047Z,14.27
2019-03-27T07:08:06.688Z,16.37
2019-03-27T07:10:36.192Z,17.17
2019-03-27T07:13:05.634Z,17.50
2019-03-27T07:15:35.875Z,17.77
2019-03-27T07:18:05.513Z,15.83
2019-03-27T07:20:35.117Z,16.37
2019-03-27T07:23:04.610Z,14.30
2019-03-27T07:25:34.048Z,13.80
2019-03-27T07:28:03.593Z,12.50
2019-03-27T07:30:34.382Z,10.97
2019-03-27T07:33:03.902Z,10.67
2019-03-27T07:35:33.510Z,11.07
2019-03-27T07:38:04.017Z,10.03
2019-03-27T07:40:35.037Z,11.00
2019-03-27T07:43:04.666Z,10.07
2019-03-27T07:45:34.223Z,10.83
2019-03-27T07:48:03.751Z,8.67
2019-03-27T07:50:33.309Z,9.00
2019-03-27T07:53:04.448Z,9.03
2019-03-27T07:55:33.955Z,9.07
2019-03-27T07:58:03.378Z,7.60
2019-03-27T08:00:33.938Z,8.33
2019-03-27T08:03:03.413Z,7.03
2019-03-27T08:05:32.909Z,7.27
2019-03-27T08:08:02.411Z,6.90
2019-03-27T08:10:31.906Z,6.63
2019-03-27T08:13:02.449Z,6.37
2019-03-27T08:15:32.142Z,6.43
2019-03-27T08:18:01.536Z,5.87
2019-03-27T08:20:31.203Z,5.80
2019-03-27T08:23:01.521Z,6.13
2019-03-27T18:19:22.627Z,7.83
2019-03-27T18:21:52.234Z,8.87
2019-03-27T18:24:21.711Z,8.37
2019-03-27T18:26:51.196Z,8.50
2019-03-27T18:29:20.778Z,7.97
2019-03-27T18:31:50.324Z,8.53
2019-03-27T18:34:19.781Z,8.73
2019-03-27T18:36:49.399Z,8.67
2019-03-27T18:39:20.080Z,9.63
2019-03-27T18:41:51.747Z,8.63
2019-03-27T18:44:21.431Z,8.53
2019-03-27T18:46:50.924Z,8.03
2019-03-27T18:49:20.628Z,8.57
2019-03-27T18:51:50.121Z,9.43
2019-03-27T18:54:19.584Z,10.87
2019-03-27T18:56:49.079Z,12.13
2019-03-27T18:59:18.688Z,12.87
2019-03-27T19:01:48.121Z,10.65
2019-03-27T19:04:17.679Z,11.27
2019-03-27T19:06:47.189Z,11.33
2019-03-27T19:09:16.677Z,10.13
2019-03-27T19:11:46.385Z,10.93
2019-03-27T19:14:16.862Z,11.07
2019-03-27T19:16:47.303Z,12.13
2019-03-27T19:19:16.886Z,12.47
2019-03-27T19:21:46.506Z,9.77
2019-03-27T19:24:17.052Z,11.17
2019-03-27T19:26:46.894Z,10.17
2019-03-27T19:29:16.480Z,12.10
2019-03-27T19:31:45.919Z,12.63
2019-03-27T19:34:15.543Z,12.77
2019-03-27T19:36:45.933Z,12.17
2019-03-27T19:39:15.637Z,13.70
2019-03-27T19:41:45.274Z,13.30
2019-03-27T19:44:14.731Z,13.63
2019-03-27T19:46:45.291Z,15.17
2019-03-27T19:49:16.820Z,13.67
2019-03-27T19:51:46.448Z,12.65
2019-03-27T19:54:26.531Z,12.13
2019-03-27T19:56:47.350Z,13.07
2019-03-27T19:59:18.238Z,14.60
2019-03-27T20:01:50.615Z,13.37
2019-03-27T20:04:20.564Z,14.10
2019-03-27T20:06:50.017Z,14.27
2019-03-27T20:09:20.038Z,14.53
2019-03-27T20:11:49.666Z,11.97
2019-03-27T20:14:19.330Z,14.83
2019-03-27T20:16:48.817Z,13.23
2019-03-27T20:19:18.372Z,14.90
2019-03-27T20:21:47.875Z,14.57
2019-03-27T20:24:17.420Z,16.40
2019-03-27T20:26:47.221Z,15.60
2019-03-27T20:29:16.645Z,15.10
2019-03-27T20:31:46.259Z,17.50
2019-03-27T20:34:15.734Z,16.17
2019-03-27T20:36:45.200Z,17.80
2019-03-27T20:39:14.686Z,16.10
2019-03-27T20:41:44.346Z,12.83
2019-03-27T20:44:13.900Z,13.10
2019-03-27T20:46:43.347Z,14.07
2019-03-27T20:49:12.784Z,13.53
2019-03-27T20:51:42.229Z,13.23
2019-03-27T20:54:11.638Z,12.53
2019-03-27T20:56:41.141Z,12.70
2019-03-27T20:59:13.802Z,6.47
2019-03-27T21:01:43.423Z,11.83
2019-03-27T21:04:12.871Z,9.87
2019-03-27T21:06:42.557Z,7.80
2019-03-27T21:09:12.113Z,10.80
2019-03-27T21:11:41.916Z,9.20
2019-03-27T21:14:11.355Z,10.63
2019-03-27T21:16:40.839Z,12.43
2019-03-27T21:19:12.532Z,12.60
2019-03-27T21:21:42.487Z,13.10
2019-03-27T21:24:11.994Z,12.73
2019-03-27T21:26:41.611Z,13.13
2019-03-27T21:29:11.295Z,14.00
2019-03-27T21:31:40.850Z,13.17
2019-03-27T21:34:10.336Z,10.53
2019-03-27T21:36:39.848Z,11.17
2019-03-27T21:39:10.139Z,10.57
2019-03-27T21:41:39.653Z,10.30
2019-03-27T21:44:09.069Z,8.47
2019-03-27T21:46:38.500Z,9.83
2019-03-27T21:49:08.009Z,11.67
2019-03-27T21:51:37.445Z,9.53
2019-03-27T21:54:06.862Z,7.47
2019-03-27T21:56:36.449Z,10.37
2019-03-27T21:59:06.007Z,11.17
2019-03-27T22:01:35.475Z,11.73
2019-03-27T22:04:05.024Z,11.77
2019-03-27T22:06:34.525Z,10.83
2019-03-27T22:09:05.450Z,10.10
2019-03-27T22:11:35.425Z,12.37
2019-03-27T22:14:05.085Z,11.27
2019-03-27T22:16:34.607Z,12.60
2019-03-27T22:19:05.312Z,12.00
2019-03-27T22:21:34.867Z,12.37
2019-03-27T22:24:04.455Z,12.20
2019-03-27T22:26:33.904Z,14.07
2019-03-27T22:29:06.357Z,12.03
2019-03-27T22:31:35.900Z,13.35
2019-03-27T22:34:05.507Z,13.10
2019-03-27T22:36:34.925Z,13.13
2019-03-27T22:39:07.261Z,13.53
2019-03-27T22:41:36.870Z,10.20
2019-03-27T22:44:07.327Z,13.47
2019-03-27T22:46:36.833Z,12.63
2019-03-27T22:49:07.279Z,10.27
2019-03-27T22:51:36.781Z,12.90
2019-03-27T22:54:06.245Z,12.03
2019-03-27T22:56:35.683Z,14.03
2019-03-27T22:59:05.280Z,13.40
2019-03-27T23:01:40.708Z,13.87
2019-03-27T23:04:10.129Z,14.33
2019-03-27T23:06:39.887Z,13.73
2019-03-27T23:09:10.004Z,12.20
2019-03-27T23:11:39.598Z,14.50
2019-03-27T23:14:10.814Z,12.60
2019-03-27T23:16:40.295Z,13.23
2019-03-27T23:19:10.888Z,14.13
2019-03-27T23:21:40.741Z,13.20
2019-03-27T23:24:10.363Z,9.23
2019-03-27T23:26:39.817Z,11.97
2019-03-27T23:29:09.287Z,14.50
2019-03-27T23:31:38.783Z,13.30
2019-03-27T23:34:08.277Z,13.40
2019-03-27T23:36:37.772Z,12.70
2019-03-27T23:39:08.662Z,12.43
2019-03-27T23:41:38.080Z,13.73
2019-03-27T23:44:07.750Z,13.80
2019-03-27T23:46:37.244Z,15.70
2019-03-27T23:49:06.740Z,13.67
2019-03-27T23:51:36.157Z,14.63
2019-03-27T23:54:05.699Z,14.33
2019-03-27T23:56:35.140Z,14.33
2019-03-27T23:59:04.816Z,12.57
